Time;durP1;ratioP1;P1;durP2;ratioP2;P2;SDS_P1;SDS_P2;PMS_P1;PMS_P2;Temp;Humidity;BMP_temperature;BMP_pressure;BME280_temperature;BME280_humidity;BME280_pressure;Samples;Min_cycle;Max_cycle;Signal;HPM_P1;HPM_P2
2023/01/03 00:01:23;;;;;;;23.65;14.43;;;8.80;99.90;;;;;;5056824;28;20126;-71
2023/01/03 00:03:51;;;;;;;23.02;14.32;;;8.70;99.90;;;;;;5056680;28;20025;-70
2023/01/03 00:06:17;;;;;;;21.90;14.57;;;8.70;99.90;;;;;;5056094;28;20466;-70
2023/01/03 00:08:44;;;;;;;24.35;14.38;;;8.70;99.90;;;;;;5056306;28;20036;-70
2023/01/03 00:12:22;;;;;;;24.80;14.68;;;8.70;99.90;;;;;;5056777;28;20040;-71
2023/01/03 00:14:10;;;;;;;22.75;14.48;;;8.70;99.90;;;;;;5054855;28;20032;-70
2023/01/03 00:16:36;;;;;;;22.42;14.43;;;8.70;99.90;;;;;;5055993;28;20024;-71
2023/01/03 00:19:10;;;;;;;25.75;15.68;;;8.70;99.90;;;;;;5056524;28;20048;-71
2023/01/03 00:21:36;;;;;;;25.27;16.05;;;8.70;99.90;;;;;;5055772;28;20104;-70
2023/01/03 00:24:03;;;;;;;21.88;15.18;;;8.70;99.90;;;;;;5054836;28;20063;-70
2023/01/03 00:26:28;;;;;;;24.13;14.90;;;8.70;99.90;;;;;;5056405;28;20045;-71
2023/01/03 00:28:54;;;;;;;24.45;15.18;;;8.70;99.90;;;;;;5054538;28;20044;-70
2023/01/03 00:31:20;;;;;;;23.95;14.95;;;8.70;99.90;;;;;;5055996;28;20120;-71
2023/01/03 00:33:45;;;;;;;27.40;16.48;;;8.70;99.90;;;;;;5055982;28;20086;-71
2023/01/03 00:36:11;;;;;;;27.23;15.77;;;8.80;99.90;;;;;;5055330;28;20116;-70
2023/01/03 00:38:37;;;;;;;25.17;15.30;;;8.80;99.90;;;;;;5056065;28;20032;-71
2023/01/03 00:41:11;;;;;;;25.00;15.77;;;8.80;99.90;;;;;;5055448;28;20033;-71
2023/01/03 00:43:37;;;;;;;24.63;15.88;;;8.70;99.90;;;;;;5056106;28;20033;-71
2023/01/03 00:46:04;;;;;;;23.50;15.30;;;8.70;99.90;;;;;;5056377;28;20083;-70
2023/01/03 00:48:30;;;;;;;22.23;15.75;;;8.70;99.90;;;;;;5054858;28;20040;-70
2023/01/03 00:50:56;;;;;;;24.23;15.70;;;8.70;99.90;;;;;;5055537;28;20047;-70
2023/01/03 00:53:22;;;;;;;20.85;14.45;;;8.70;99.90;;;;;;5055624;28;20029;-71
2023/01/03 00:55:49;;;;;;;22.67;15.18;;;8.70;99.90;;;;;;5037939;28;20033;-70
2023/01/03 00:58:15;;;;;;;20.80;14.52;;;8.70;99.90;;;;;;5054571;28;20044;-71
2023/01/03 01:00:40;;;;;;;26.33;14.70;;;8.70;99.90;;;;;;5055950;28;20040;-71
2023/01/03 01:03:06;;;;;;;21.38;14.82;;;8.80;99.90;;;;;;5055180;28;20029;-71
2023/01/03 01:05:32;;;;;;;20.23;14.27;;;8.80;99.90;;;;;;5055302;28;20122;-71
2023/01/03 01:07:58;;;;;;;22.75;14.68;;;8.80;99.90;;;;;;5055249;28;20509;-71
2023/01/03 01:10:24;;;;;;;23.30;14.02;;;8.90;99.90;;;;;;5055257;28;20107;-71
2023/01/03 01:12:54;;;;;;;23.58;15.35;;;8.90;99.90;;;;;;5054943;28;20128;-71
2023/01/03 01:15:19;;;;;;;25.45;15.52;;;9.00;99.90;;;;;;5055188;28;20033;-71
2023/01/03 01:17:45;;;;;;;23.42;15.57;;;9.00;99.90;;;;;;5055040;28;20025;-71
2023/01/03 01:20:11;;;;;;;20.92;15.55;;;9.00;99.90;;;;;;5054803;28;20029;-71
2023/01/03 01:22:37;;;;;;;21.90;14.85;;;9.00;99.90;;;;;;5055822;28;20033;-71
2023/01/03 01:25:03;;;;;;;28.77;16.50;;;9.00;99.90;;;;;;5054988;28;20390;-71
2023/01/03 01:27:28;;;;;;;30.40;16.08;;;9.00;99.90;;;;;;5053571;28;20041;-71
2023/01/03 01:29:54;;;;;;;25.13;15.82;;;9.00;99.90;;;;;;5055160;28;20074;-72
2023/01/03 01:32:20;;;;;;;25.95;16.85;;;9.00;99.90;;;;;;5054846;28;20029;-71
2023/01/03 01:34:45;;;;;;;38.42;24.48;;;9.00;99.90;;;;;;5055054;28;20472;-71
2023/01/03 01:37:11;;;;;;;49.78;29.55;;;9.00;99.90;;;;;;5054752;28;20529;-71
2023/01/03 01:39:36;;;;;;;56.25;31.70;;;9.00;99.90;;;;;;5036778;28;20025;-71
2023/01/03 01:44:59;;;;;;;44.60;28.63;;;9.00;99.90;;;;;;5054629;28;20102;-71
2023/01/03 01:48:05;;;;;;;39.25;27.98;;;9.10;99.90;;;;;;5052933;28;20025;-71
2023/01/03 01:50:49;;;;;;;39.53;25.83;;;9.10;99.90;;;;;;5043445;28;20045;-71
2023/01/03 01:53:21;;;;;;;35.47;25.52;;;9.10;99.90;;;;;;5054844;28;20036;-71
2023/01/03 01:55:49;;;;;;;34.42;21.95;;;9.10;99.90;;;;;;5037549;28;20032;-71
2023/01/03 01:58:15;;;;;;;32.22;20.77;;;9.10;99.90;;;;;;5055126;28;20134;-71
2023/01/03 02:00:42;;;;;;;31.83;20.67;;;9.10;99.90;;;;;;5054306;28;20025;-71
2023/01/03 02:03:10;;;;;;;25.63;18.30;;;9.10;99.90;;;;;;5054186;28;20037;-71
2023/01/03 02:05:38;;;;;;;26.02;19.50;;;9.10;99.90;;;;;;5054343;28;20029;-71
2023/01/03 02:08:04;;;;;;;26.67;19.20;;;9.20;99.90;;;;;;5053802;28;20093;-71
2023/01/03 02:10:30;;;;;;;27.00;19.15;;;9.20;99.90;;;;;;5053216;28;20033;-71
2023/01/03 02:13:05;;;;;;;26.13;18.88;;;9.20;99.90;;;;;;5054129;28;20454;-71
2023/01/03 02:16:10;;;;;;;24.77;17.73;;;9.20;99.90;;;;;;5054845;28;20063;-71
2023/01/03 02:19:13;;;;;;;23.58;17.25;;;9.20;99.90;;;;;;5054520;28;20047;-71
2023/01/03 02:21:50;;;;;;;25.17;17.10;;;9.30;99.90;;;;;;5056559;28;20033;-71
2023/01/03 02:24:53;;;;;;;25.98;18.05;;;9.20;99.90;;;;;;5055840;28;20029;-71
2023/01/03 02:27:24;;;;;;;24.10;18.15;;;9.20;99.90;;;;;;5056039;28;20040;-71
2023/01/03 02:30:08;;;;;;;24.80;17.77;;;9.30;99.90;;;;;;5054481;28;20465;-72
2023/01/03 02:32:51;;;;;;;26.08;18.10;;;9.30;99.90;;;;;;5053634;28;20112;-71
2023/01/03 02:35:21;;;;;;;;;;;9.30;99.90;;;;;;5054464;28;20112;-71
2023/01/03 02:38:06;;;;;;;25.27;17.17;;;9.30;99.90;;;;;;5053953;28;19949;-71
2023/01/03 02:40:35;;;;;;;24.40;17.52;;;9.30;99.90;;;;;;5053871;28;20017;-71
2023/01/03 02:43:06;;;;;;;23.83;17.35;;;9.30;99.90;;;;;;5052321;28;20120;-71
2023/01/03 02:45:59;;;;;;;27.48;18.88;;;9.30;99.90;;;;;;5053315;28;20025;-71
2023/01/03 02:48:58;;;;;;;25.63;17.05;;;9.30;99.90;;;;;;5053338;28;20031;-71
2023/01/03 02:51:37;;;;;;;29.27;20.92;;;9.30;99.90;;;;;;5052362;28;20043;-71
2023/01/03 02:54:06;;;;;;;34.35;22.08;;;9.20;99.90;;;;;;5052308;28;20462;-71
2023/01/03 02:56:41;;;;;;;28.63;20.80;;;9.00;99.90;;;;;;5053134;28;20472;-71
2023/01/03 02:59:16;;;;;;;28.23;21.52;;;9.00;99.90;;;;;;5052477;28;20033;-71
2023/01/03 03:01:43;;;;;;;33.15;21.65;;;8.90;99.90;;;;;;5053612;28;20048;-71
2023/01/03 03:04:11;;;;;;;25.55;20.30;;;8.80;99.90;;;;;;5053170;28;20033;-71
2023/01/03 03:07:18;;;;;;;31.67;19.88;;;8.80;99.90;;;;;;5052912;28;20033;-71
2023/01/03 03:15:21;;;;;;;26.90;20.33;;;8.80;99.90;;;;;;5053308;28;20538;-71
2023/01/03 03:17:50;;;;;;;27.13;19.75;;;8.70;99.90;;;;;;5053027;28;20033;-71
2023/01/03 03:26:03;;;;;;;29.45;20.63;;;8.70;99.90;;;;;;5053084;28;20148;-71
2023/01/03 03:28:35;;;;;;;27.95;20.08;;;8.70;99.90;;;;;;5051805;28;20048;-71
2023/01/03 03:31:08;;;;;;;34.22;22.15;;;8.70;99.90;;;;;;5053188;28;20036;-71
2023/01/03 03:33:42;;;;;;;32.13;20.95;;;8.70;99.90;;;;;;5051658;28;20029;-71
2023/01/03 03:36:40;;;;;;;34.80;22.60;;;8.70;99.90;;;;;;5052897;28;20029;-71
2023/01/03 03:44:59;;;;;;;35.50;23.02;;;8.70;99.90;;;;;;5053360;28;20029;-71
2023/01/03 03:44:59;;;;;;;30.95;22.80;;;8.80;99.90;;;;;;5053060;28;20448;-71
2023/01/03 03:47:32;;;;;;;33.20;22.75;;;8.80;99.90;;;;;;5051435;28;20071;-71
2023/01/03 03:50:10;;;;;;;35.42;21.13;;;8.80;99.90;;;;;;5052766;28;20037;-71
2023/01/03 03:52:38;;;;;;;29.17;21.60;;;8.80;99.90;;;;;;5052759;28;20044;-71
2023/01/03 03:55:10;;;;;;;27.65;19.90;;;8.70;99.90;;;;;;5052481;28;20035;-71
2023/01/03 03:57:46;;;;;;;30.90;20.98;;;8.70;99.90;;;;;;5052782;28;20035;-71
2023/01/03 04:00:15;;;;;;;26.77;19.17;;;8.80;99.90;;;;;;5052808;28;20040;-72
2023/01/03 04:02:45;;;;;;;27.75;19.90;;;8.80;99.90;;;;;;5053143;28;20029;-71
2023/01/03 04:05:15;;;;;;;30.65;20.20;;;8.90;99.90;;;;;;5053535;28;20135;-71
2023/01/03 04:07:40;;;;;;;26.50;19.65;;;8.90;99.90;;;;;;5053049;28;20462;-71
2023/01/03 04:10:08;;;;;;;28.30;20.70;;;8.90;99.90;;;;;;5052585;28;20039;-71
2023/01/03 04:12:33;;;;;;;29.25;21.10;;;8.90;99.90;;;;;;5054930;28;20400;-71
2023/01/03 04:14:59;;;;;;;27.50;20.38;;;8.90;99.90;;;;;;5056378;28;20025;-71
2023/01/03 04:17:25;;;;;;;30.17;20.10;;;8.90;99.90;;;;;;5054609;28;20029;-71
2023/01/03 04:19:51;;;;;;;27.25;19.17;;;8.90;99.90;;;;;;5056294;28;20027;-71
2023/01/03 04:22:16;;;;;;;28.27;19.27;;;8.90;99.90;;;;;;5056525;28;20420;-71
2023/01/03 04:24:42;;;;;;;24.58;19.67;;;9.00;99.90;;;;;;5055569;28;20029;-71
2023/01/03 04:27:08;;;;;;;27.90;18.17;;;8.90;99.90;;;;;;5056362;28;20104;-71
2023/01/03 04:29:33;;;;;;;23.83;18.08;;;8.90;99.90;;;;;;5056168;28;20094;-72
2023/01/03 04:31:59;;;;;;;25.23;16.60;;;8.90;99.90;;;;;;5055082;28;20029;-71
2023/01/03 04:34:24;;;;;;;25.52;16.05;;;8.80;99.90;;;;;;5054703;28;20029;-71
2023/01/03 04:36:50;;;;;;;20.60;14.98;;;8.80;99.90;;;;;;5054398;28;20029;-71
2023/01/03 04:39:16;;;;;;;22.55;14.88;;;8.80;99.90;;;;;;5056035;28;20032;-71
2023/01/03 04:41:41;;;;;;;24.17;14.15;;;8.80;99.90;;;;;;5054421;28;20036;-72
2023/01/03 04:44:08;;;;;;;24.00;14.55;;;8.70;99.90;;;;;;5055886;28;20029;-71
2023/01/03 04:46:38;;;;;;;19.45;13.40;;;8.70;99.90;;;;;;5056082;28;20033;-71
2023/01/03 04:49:07;;;;;;;19.70;14.77;;;8.80;99.90;;;;;;5055577;28;20025;-71
2023/01/03 04:51:33;;;;;;;18.40;14.13;;;8.70;99.90;;;;;;5055564;28;20029;-71
2023/01/03 04:53:59;;;;;;;16.92;13.85;;;8.70;99.90;;;;;;5054845;28;20041;-72
2023/01/03 04:56:27;;;;;;;26.25;15.10;;;8.70;99.90;;;;;;5055526;28;20032;-72
2023/01/03 04:58:53;;;;;;;18.30;13.77;;;8.70;99.90;;;;;;5056376;28;20061;-72
2023/01/03 05:01:20;;;;;;;18.77;14.05;;;8.70;99.90;;;;;;5055428;28;20029;-71
2023/01/03 05:03:45;;;;;;;22.08;13.57;;;8.70;99.90;;;;;;5054075;28;20033;-71
2023/01/03 05:06:11;;;;;;;19.40;12.88;;;8.60;99.90;;;;;;5053992;28;20362;-71
2023/01/03 05:08:37;;;;;;;23.60;13.55;;;8.50;99.90;;;;;;5054986;28;20508;-71
2023/01/03 05:11:04;;;;;;;18.00;12.07;;;8.50;99.90;;;;;;5055038;28;20028;-72
2023/01/03 05:13:31;;;;;;;21.73;12.40;;;8.50;99.90;;;;;;5054930;28;20025;-71
2023/01/03 05:16:06;;;;;;;17.15;11.88;;;8.40;99.90;;;;;;5055484;28;20033;-71
2023/01/03 05:18:32;;;;;;;18.60;11.98;;;8.40;99.90;;;;;;5054182;28;20108;-71
2023/01/03 05:26:47;;;;;;;19.75;13.27;;;8.30;99.90;;;;;;5054961;28;20107;-71
2023/01/03 05:29:16;;;;;;;16.63;12.07;;;8.30;99.90;;;;;;5054585;28;20103;-70
2023/01/03 05:31:42;;;;;;;19.05;12.57;;;8.30;99.90;;;;;;5053133;28;20060;-71
2023/01/03 05:34:07;;;;;;;18.33;12.40;;;8.30;99.90;;;;;;5054983;28;20555;-71
2023/01/03 05:36:33;;;;;;;20.70;12.15;;;8.30;99.90;;;;;;5053349;28;20397;-71
2023/01/03 05:38:59;;;;;;;19.17;12.45;;;8.30;99.90;;;;;;5055054;28;20029;-71
2023/01/03 05:44:09;;;;;;;21.75;12.77;;;8.40;99.90;;;;;;5056044;28;20036;-71
2023/01/03 05:46:34;;;;;;;17.15;11.93;;;8.40;99.90;;;;;;5056381;28;20433;-71
2023/01/03 05:49:00;;;;;;;18.80;12.15;;;8.40;99.90;;;;;;5057741;28;20029;-71
2023/01/03 05:51:26;;;;;;;18.17;12.85;;;8.40;99.90;;;;;;5038537;28;20393;-70
2023/01/03 05:53:51;;;;;;;16.85;11.50;;;8.40;99.90;;;;;;5054411;28;20108;-70
2023/01/03 05:56:17;;;;;;;18.40;11.60;;;8.40;99.90;;;;;;5054337;28;20477;-71
2023/01/03 05:58:43;;;;;;;17.52;11.60;;;8.40;99.90;;;;;;5054384;28;20388;-71
2023/01/03 06:01:10;;;;;;;19.13;12.80;;;8.40;99.90;;;;;;5054262;28;20031;-71
2023/01/03 06:03:35;;;;;;;17.77;11.55;;;8.40;99.90;;;;;;5053811;28;20037;-71
2023/01/03 06:06:05;;;;;;;19.13;12.45;;;8.40;99.90;;;;;;5054134;28;20033;-71
2023/01/03 06:08:31;;;;;;;16.90;11.38;;;8.40;99.90;;;;;;5036032;28;20032;-70
2023/01/03 06:10:57;;;;;;;19.77;11.80;;;8.40;99.90;;;;;;5053115;28;20036;-71
2023/01/03 06:13:23;;;;;;;18.30;11.20;;;8.40;99.90;;;;;;5052537;28;20033;-71
2023/01/03 06:18:35;;;;;;;16.92;10.38;;;8.40;99.90;;;;;;5022484;28;20102;-71
2023/01/03 06:21:05;;;;;;;12.75;9.52;;;8.40;99.90;;;;;;5053306;28;20024;-71
2023/01/03 06:23:30;;;;;;;16.50;10.13;;;8.40;99.90;;;;;;5052392;28;20041;-71
2023/01/03 06:25:56;;;;;;;14.63;10.00;;;8.40;99.90;;;;;;5035603;28;20049;-71
2023/01/03 06:28:22;;;;;;;16.67;9.55;;;8.40;99.90;;;;;;5053698;28;20178;-71
2023/01/03 06:30:47;;;;;;;13.48;9.25;;;8.40;99.90;;;;;;5053701;28;20377;-71
2023/01/03 06:33:13;;;;;;;14.23;9.27;;;8.40;99.90;;;;;;5053364;28;20033;-71
2023/01/03 06:35:39;;;;;;;12.90;8.30;;;8.40;99.90;;;;;;5052619;28;20039;-71
2023/01/03 06:38:05;;;;;;;12.98;8.60;;;8.40;99.90;;;;;;5053775;28;20044;-71
2023/01/03 06:40:30;;;;;;;14.95;8.77;;;8.40;99.90;;;;;;5051908;28;20033;-71
2023/01/03 06:42:56;;;;;;;16.83;9.20;;;8.40;99.90;;;;;;5053554;28;20029;-71
2023/01/03 06:53:41;;;;;;;12.30;7.93;;;8.30;99.90;;;;;;5052573;28;20043;-72
2023/01/03 06:56:07;;;;;;;11.75;7.80;;;8.30;99.90;;;;;;5052449;28;20025;-71
2023/01/03 06:58:34;;;;;;;12.40;8.50;;;8.40;99.90;;;;;;5053218;28;20076;-72
2023/01/03 07:01:02;;;;;;;13.60;8.05;;;8.30;99.90;;;;;;5053314;28;20055;-71
2023/01/03 07:03:31;;;;;;;14.13;8.10;;;8.30;99.90;;;;;;5051964;28;20033;-72
2023/01/03 07:05:57;;;;;;;12.27;7.10;;;8.20;99.90;;;;;;5051932;28;20358;-71
2023/01/03 07:08:22;;;;;;;12.57;5.95;;;8.30;99.90;;;;;;5051877;28;20086;-74
2023/01/03 07:10:48;;;;;;;13.57;7.10;;;8.30;99.90;;;;;;5053369;28;20334;-74
2023/01/03 07:15:58;;;;;;;13.38;7.80;;;8.40;99.90;;;;;;5052091;28;20044;-73
2023/01/03 07:18:25;;;;;;;10.27;7.32;;;8.40;99.90;;;;;;5053039;28;20032;-74
2023/01/03 07:20:51;;;;;;;15.65;7.57;;;8.40;99.90;;;;;;5053081;28;20401;-74
2023/01/03 07:23:17;;;;;;;18.40;9.68;;;8.50;99.90;;;;;;5051620;28;20033;-74
2023/01/03 07:25:42;;;;;;;17.10;10.50;;;8.50;99.90;;;;;;5053454;28;20049;-72
2023/01/03 07:28:10;;;;;;;16.10;9.63;;;8.40;99.90;;;;;;5051921;28;20469;-74
2023/01/03 07:30:41;;;;;;;14.82;8.70;;;8.40;99.90;;;;;;5053774;28;20486;-74
2023/01/03 07:33:08;;;;;;;16.63;9.43;;;8.50;99.90;;;;;;5053050;28;20025;-74
2023/01/03 07:35:35;;;;;;;13.32;8.13;;;8.50;99.90;;;;;;5053076;28;20037;-74
2023/01/03 07:38:01;;;;;;;16.20;8.77;;;8.60;99.90;;;;;;5052588;28;20056;-73
2023/01/03 07:40:28;;;;;;;11.75;7.25;;;8.70;99.90;;;;;;5051720;28;20385;-74
2023/01/03 07:45:40;;;;;;;11.63;7.13;;;8.80;99.90;;;;;;5053530;28;20060;-73
2023/01/03 07:48:06;;;;;;;13.60;8.18;;;8.90;99.90;;;;;;5056913;28;20120;-72
2023/01/03 07:50:31;;;;;;;14.50;7.88;;;8.90;99.90;;;;;;5056518;28;20116;-73
2023/01/03 07:52:57;;;;;;;13.25;7.45;;;9.00;99.90;;;;;;5055535;28;20461;-73
2023/01/03 07:55:23;;;;;;;12.40;8.05;;;9.00;99.90;;;;;;5055843;28;20315;-72
2023/01/03 07:57:48;;;;;;;9.38;6.50;;;9.00;99.90;;;;;;5056344;28;20465;-71
2023/01/03 08:00:14;;;;;;;11.73;8.13;;;9.10;99.90;;;;;;5057029;28;20441;-71
2023/01/03 08:02:40;;;;;;;10.43;7.18;;;9.00;99.90;;;;;;5056186;28;20029;-70
2023/01/03 08:05:06;;;;;;;12.25;7.75;;;9.00;99.90;;;;;;5056545;28;20025;-70
2023/01/03 08:07:31;;;;;;;12.57;7.95;;;8.90;99.90;;;;;;5056046;28;20369;-70
2023/01/03 08:15:25;;;;;;;16.45;8.52;;;8.90;99.90;;;;;;5056112;28;20032;-70
2023/01/03 08:17:51;;;;;;;17.25;9.07;;;8.80;99.90;;;;;;5056247;28;20033;-69
2023/01/03 08:20:16;;;;;;;13.32;7.35;;;8.80;99.90;;;;;;5056149;28;20465;-71
2023/01/03 08:22:42;;;;;;;13.52;7.18;;;8.80;99.90;;;;;;5056690;28;20372;-70
2023/01/03 08:25:08;;;;;;;12.68;7.03;;;8.70;99.90;;;;;;5055894;28;20033;-70
2023/01/03 08:27:34;;;;;;;15.20;6.72;;;8.70;99.90;;;;;;5055404;28;20025;-71
2023/01/03 08:29:59;;;;;;;12.55;6.85;;;8.70;99.90;;;;;;5055995;28;20044;-71
2023/01/03 08:32:25;;;;;;;14.07;8.50;;;8.80;99.90;;;;;;5056404;28;20403;-70
2023/01/03 08:34:53;;;;;;;14.80;8.98;;;8.70;99.90;;;;;;5055901;28;20139;-70
2023/01/03 08:37:19;;;;;;;12.98;9.10;;;8.70;99.90;;;;;;5055794;28;20458;-70
2023/01/03 08:39:55;;;;;;;10.27;7.40;;;8.70;99.90;;;;;;5056157;28;20033;-69
2023/01/03 08:42:23;;;;;;;11.48;7.80;;;8.70;99.90;;;;;;5056337;28;20017;-69
2023/01/03 08:44:56;;;;;;;15.18;9.23;;;8.80;99.90;;;;;;5056480;28;20029;-69
2023/01/03 08:47:22;;;;;;;15.15;9.25;;;8.80;99.90;;;;;;5055511;28;20025;-70
2023/01/03 08:49:48;;;;;;;11.38;7.00;;;8.80;99.90;;;;;;5056077;28;20063;-70
2023/01/03 08:52:13;;;;;;;15.65;8.48;;;8.80;99.90;;;;;;5054034;28;20059;-70
2023/01/03 08:54:39;;;;;;;12.48;8.30;;;8.90;99.90;;;;;;5055242;28;20036;-73
2023/01/03 08:57:05;;;;;;;14.57;8.73;;;8.90;99.90;;;;;;5054816;28;20033;-73
2023/01/03 08:59:31;;;;;;;12.75;7.13;;;8.90;99.90;;;;;;5055341;28;20033;-74
2023/01/03 09:02:00;;;;;;;15.15;8.25;;;8.90;99.90;;;;;;5055357;28;20032;-73
2023/01/03 09:04:26;;;;;;;10.20;7.25;;;8.90;99.90;;;;;;5054702;28;20040;-73
2023/01/03 09:06:51;;;;;;;12.82;6.97;;;9.00;99.90;;;;;;5063404;28;20029;-73
2023/01/03 09:09:17;;;;;;;9.35;6.25;;;8.90;99.90;;;;;;5062341;28;20063;-74
2023/01/03 09:11:43;;;;;;;14.15;7.38;;;9.00;99.90;;;;;;5055570;28;20041;-73
2023/01/03 09:14:09;;;;;;;11.43;7.72;;;9.10;99.90;;;;;;5054015;28;20428;-74
2023/01/03 09:16:34;;;;;;;10.18;7.25;;;9.00;99.90;;;;;;5055738;28;20379;-73
2023/01/03 09:19:01;;;;;;;11.02;7.05;;;9.00;99.90;;;;;;5054342;28;20037;-71
2023/01/03 09:21:28;;;;;;;14.38;7.80;;;8.90;99.90;;;;;;5055107;28;20083;-71
2023/01/03 09:23:54;;;;;;;13.05;7.57;;;8.90;99.90;;;;;;5053963;28;20037;-72
2023/01/03 09:26:19;;;;;;;14.68;7.68;;;8.80;99.90;;;;;;5053395;28;20160;-72
2023/01/03 09:28:45;;;;;;;14.07;7.75;;;8.80;99.90;;;;;;5055298;28;20037;-70
2023/01/03 09:31:11;;;;;;;14.02;8.43;;;8.80;99.90;;;;;;5054716;28;20029;-69
2023/01/03 09:33:36;;;;;;;15.13;8.40;;;8.70;99.90;;;;;;5054995;28;20078;-70
2023/01/03 09:36:02;;;;;;;14.43;8.13;;;8.70;99.90;;;;;;5055148;28;20111;-70
2023/01/03 09:38:28;;;;;;;11.70;7.68;;;8.70;99.90;;;;;;5053326;28;20056;-70
2023/01/03 09:41:20;;;;;;;15.77;8.70;;;8.60;99.90;;;;;;5053389;28;20078;-69
2023/01/03 09:43:49;;;;;;;15.77;8.17;;;8.60;99.90;;;;;;5054524;28;20380;-70
2023/01/03 09:46:18;;;;;;;17.80;9.88;;;8.70;99.90;;;;;;5054538;28;20086;-70
2023/01/03 09:48:45;;;;;;;16.13;9.50;;;8.60;99.90;;;;;;5054526;28;20036;-70
2023/01/03 10:06:09;;;;;;;14.70;7.80;;;8.70;99.90;;;;;;5054189;28;20110;-79
2023/01/03 10:08:45;;;;;;;13.65;7.93;;;8.90;99.90;;;;;;5054673;28;20327;-77
2023/01/03 10:11:41;;;;;;;15.65;8.65;;;9.10;99.90;;;;;;5054050;28;20021;-77
2023/01/03 10:14:25;;;;;;;11.40;7.53;;;9.20;99.90;;;;;;5027542;28;20041;-78
2023/01/03 10:17:00;;;;;;;14.63;8.45;;;9.20;99.90;;;;;;5053983;28;20017;-78
2023/01/03 10:19:38;;;;;;;16.85;8.95;;;9.30;99.90;;;;;;5053804;28;20163;-77
2023/01/03 10:22:20;;;;;;;20.98;9.07;;;9.20;99.90;;;;;;5052856;28;20029;-77
2023/01/03 10:25:04;;;;;;;12.75;8.32;;;9.30;99.90;;;;;;5054183;28;20052;-77
2023/01/03 10:27:37;;;;;;;15.43;8.52;;;9.30;99.90;;;;;;5053010;28;20060;-77
2023/01/03 10:30:11;;;;;;;17.75;8.70;;;9.30;99.90;;;;;;5054246;28;20029;-78
2023/01/03 10:32:43;;;;;;;16.45;8.55;;;9.30;99.90;;;;;;5053732;28;20082;-77
2023/01/03 10:35:17;;;;;;;15.68;8.02;;;9.30;99.90;;;;;;5052310;28;20124;-79
2023/01/03 10:37:44;;;;;;;16.25;8.27;;;9.20;99.90;;;;;;5051691;28;20091;-78
2023/01/03 10:40:11;;;;;;;13.43;7.22;;;9.20;99.90;;;;;;5052467;28;20029;-78
2023/01/03 10:42:39;;;;;;;14.52;9.70;;;9.10;99.90;;;;;;5052085;28;20186;-71
2023/01/03 10:45:13;;;;;;;13.48;8.38;;;9.10;99.90;;;;;;5053792;28;20082;-73
2023/01/03 10:47:39;;;;;;;18.20;9.50;;;9.10;99.90;;;;;;5054490;28;20385;-74
2023/01/03 10:50:06;;;;;;;13.60;8.82;;;9.10;99.90;;;;;;5053189;28;20484;-73
2023/01/03 10:52:36;;;;;;;16.45;9.00;;;9.10;99.90;;;;;;5054998;28;20103;-73
2023/01/03 10:55:14;;;;;;;16.77;9.25;;;9.10;99.90;;;;;;5058053;28;20112;-73
2023/01/03 10:57:42;;;;;;;14.90;9.40;;;9.10;99.90;;;;;;5054145;28;20055;-74
2023/01/03 11:00:25;;;;;;;15.77;8.70;;;9.10;99.90;;;;;;5053846;28;20052;-74
2023/01/03 11:02:51;;;;;;;16.63;8.73;;;9.10;99.90;;;;;;5052109;28;20047;-73
2023/01/03 11:05:20;;;;;;;17.35;9.38;;;9.10;99.90;;;;;;5051704;28;20068;-74
2023/01/03 11:07:55;;;;;;;15.55;9.38;;;9.00;99.90;;;;;;5052849;28;20029;-74
2023/01/03 11:10:22;;;;;;;15.68;9.32;;;9.00;99.90;;;;;;5051537;28;20120;-74
2023/01/03 11:12:48;;;;;;;14.15;8.93;;;9.00;99.90;;;;;;5052151;28;20406;-74
2023/01/03 11:15:18;;;;;;;15.90;8.60;;;9.00;99.90;;;;;;5053539;28;20115;-74
2023/01/03 11:17:55;;;;;;;19.55;9.07;;;8.90;99.90;;;;;;5052174;28;20412;-72
2023/01/03 11:20:38;;;;;;;13.75;8.50;;;8.90;99.90;;;;;;5052404;28;20029;-74
2023/01/03 11:23:15;;;;;;;15.02;8.18;;;8.90;99.90;;;;;;5053517;28;20021;-74
2023/01/03 11:25:56;;;;;;;14.25;8.30;;;8.90;99.90;;;;;;5052676;28;20049;-73
2023/01/03 11:28:40;;;;;;;13.38;7.90;;;8.80;99.90;;;;;;5053346;28;20446;-73
2023/01/03 11:31:27;;;;;;;12.73;7.93;;;8.80;99.90;;;;;;5034933;28;20033;-71
2023/01/03 11:34:02;;;;;;;15.43;8.65;;;8.90;99.90;;;;;;5052869;28;20025;-72
2023/01/03 11:36:48;;;;;;;11.95;7.50;;;8.90;99.90;;;;;;5053112;28;20021;-71
2023/01/03 11:39:29;;;;;;;15.93;7.03;;;8.90;99.90;;;;;;5052971;28;20060;-70
2023/01/03 11:42:19;;;;;;;14.57;8.20;;;8.90;99.90;;;;;;5052630;28;20033;-71
2023/01/03 11:45:14;;;;;;;11.25;8.00;;;9.00;99.90;;;;;;5052901;28;20032;-71
2023/01/03 11:48:10;;;;;;;14.00;7.63;;;9.00;99.90;;;;;;5053049;28;20025;-72
2023/01/03 11:50:56;;;;;;;14.70;7.75;;;9.00;99.90;;;;;;5052641;28;20029;-70
2023/01/03 11:53:35;;;;;;;12.77;8.25;;;8.90;99.90;;;;;;5052112;28;20430;-70
2023/01/03 11:56:06;;;;;;;16.50;8.50;;;8.90;99.90;;;;;;5052916;28;20021;-71
2023/01/03 11:59:09;;;;;;;14.60;8.30;;;8.80;99.90;;;;;;5052752;28;20036;-72
2023/01/03 12:01:53;;;;;;;11.57;7.30;;;8.90;99.90;;;;;;5051214;28;20060;-71
2023/01/03 12:04:25;;;;;;;14.63;7.82;;;8.90;99.90;;;;;;5052978;28;20055;-71
2023/01/03 12:07:03;;;;;;;14.88;7.82;;;8.90;99.90;;;;;;5051753;28;20029;-71
2023/01/03 12:09:53;;;;;;;11.90;7.93;;;8.90;99.90;;;;;;5052395;28;20044;-71
2023/01/03 12:12:18;;;;;;;15.55;7.55;;;8.90;99.90;;;;;;5051050;28;20029;-70
2023/01/03 12:14:52;;;;;;;11.32;7.32;;;9.00;99.90;;;;;;5051645;28;20024;-71
2023/01/03 12:17:42;;;;;;;13.15;7.30;;;8.90;99.90;;;;;;5053119;28;20075;-71
2023/01/03 12:20:37;;;;;;;17.33;7.53;;;9.00;99.90;;;;;;5052470;28;20029;-71
2023/01/03 12:23:29;;;;;;;10.40;6.55;;;9.00;99.90;;;;;;5050574;28;20037;-73
2023/01/03 12:25:59;;;;;;;11.95;5.80;;;9.00;99.90;;;;;;5052185;28;20077;-71
2023/01/03 12:28:45;;;;;;;11.35;6.32;;;9.00;99.90;;;;;;5053373;28;20025;-71
2023/01/03 12:31:26;;;;;;;11.00;6.10;;;9.00;99.90;;;;;;5052630;28;20033;-71
2023/01/03 12:34:04;;;;;;;8.70;5.55;;;9.00;99.90;;;;;;5054443;28;20481;-71
2023/01/03 12:36:36;;;;;;;11.80;5.35;;;9.00;99.90;;;;;;5055733;28;20052;-70
2023/01/03 12:39:40;;;;;;;9.50;4.87;;;9.00;99.90;;;;;;5054961;28;20520;-71
2023/01/03 12:42:28;;;;;;;9.52;5.30;;;9.00;99.90;;;;;;5056035;28;20029;-71
2023/01/03 12:45:30;;;;;;;9.60;5.65;;;9.00;99.90;;;;;;5056432;28;20053;-70
2023/01/03 12:48:30;;;;;;;9.13;5.27;;;9.00;99.90;;;;;;5052138;28;20033;-72
2023/01/03 12:50:56;;;;;;;8.18;5.55;;;9.10;99.90;;;;;;5055574;28;20268;-70
2023/01/03 12:53:49;;;;;;;8.48;5.63;;;9.10;99.90;;;;;;5054702;28;20033;-70
2023/01/03 12:56:52;;;;;;;10.95;5.55;;;9.10;99.90;;;;;;5055502;28;20029;-72
2023/01/03 13:00:07;;;;;;;8.40;5.50;;;9.10;99.90;;;;;;5054131;28;20560;-72
2023/01/03 13:02:56;;;;;;;11.30;6.10;;;9.10;99.90;;;;;;5027763;28;20293;-72
2023/01/03 13:05:25;;;;;;;9.38;6.25;;;9.10;99.90;;;;;;5055648;28;20059;-71
2023/01/03 13:08:26;;;;;;;12.38;6.97;;;9.10;99.90;;;;;;5055104;28;20044;-71
2023/01/03 13:10:55;;;;;;;11.10;6.93;;;9.10;99.90;;;;;;5030485;28;20072;-71
2023/01/03 13:13:21;;;;;;;10.63;6.25;;;9.20;99.90;;;;;;5053892;28;20036;-71
2023/01/03 13:15:47;;;;;;;14.35;6.88;;;9.20;99.90;;;;;;5054850;28;20021;-71
2023/01/03 13:18:21;;;;;;;12.13;6.47;;;9.20;99.90;;;;;;5055141;28;20060;-71
2023/01/03 13:20:52;;;;;;;11.32;6.57;;;9.20;99.90;;;;;;5053745;28;20113;-72
2023/01/03 13:23:52;;;;;;;8.50;5.95;;;9.20;99.90;;;;;;5055710;28;20033;-71
2023/01/03 13:26:21;;;;;;;10.90;6.50;;;9.20;99.90;;;;;;5054972;28;20056;-71
2023/01/03 13:28:47;;;;;;;12.82;6.55;;;9.20;99.90;;;;;;5054729;28;20055;-71
2023/01/03 13:31:13;;;;;;;10.50;6.45;;;9.20;99.90;;;;;;5054017;28;20032;-71
2023/01/03 13:33:47;;;;;;;11.50;6.05;;;9.30;99.90;;;;;;5054643;28;20063;-71
2023/01/03 13:36:16;;;;;;;13.05;5.88;;;9.20;99.90;;;;;;5055025;28;20055;-71
2023/01/03 13:38:42;;;;;;;9.30;4.88;;;9.30;99.90;;;;;;5055514;28;20037;-70
2023/01/03 13:41:34;;;;;;;8.85;4.07;;;9.20;99.90;;;;;;5054610;28;20119;-70
2023/01/03 13:44:18;;;;;;;5.97;4.13;;;9.20;99.90;;;;;;5054288;28;20032;-71
2023/01/03 13:46:45;;;;;;;8.52;4.22;;;9.20;99.90;;;;;;5054880;28;20025;-71
2023/01/03 13:49:24;;;;;;;7.55;3.85;;;9.20;99.90;;;;;;5054145;28;20522;-71
2023/01/03 13:51:57;;;;;;;8.70;3.63;;;9.10;99.90;;;;;;5053991;28;20456;-71
2023/01/03 13:54:35;;;;;;;6.70;3.15;;;9.10;99.90;;;;;;5054066;28;20029;-70
2023/01/03 13:57:04;;;;;;;5.53;2.67;;;9.20;99.90;;;;;;5054351;28;20067;-71
2023/01/03 13:59:43;;;;;;;11.35;3.45;;;9.20;99.90;;;;;;5054263;28;20033;-72
2023/01/03 14:02:11;;;;;;;9.10;3.25;;;9.20;99.90;;;;;;5053430;28;20033;-71
2023/01/03 14:04:58;;;;;;;7.53;2.95;;;9.20;99.90;;;;;;5054177;28;20032;-71
2023/01/03 14:07:56;;;;;;;5.63;2.90;;;9.30;99.90;;;;;;5055139;28;20025;-71
2023/01/03 14:10:39;;;;;;;8.60;2.88;;;9.30;99.90;;;;;;5055016;28;20029;-72